sensor_id;sensor_type;location;lat;lon;timestamp;pressure;altitude;pressure_sealevel;temperature;humidity
61528;BME280;47395;42.032;-8.634;2024-02-16T00:00:50;75505.50;;;-148.63;35.16
61528;BME280;47395;42.032;-8.634;2024-02-16T00:02:52;75453.47;;;-148.63;35.00
61528;BME280;47395;42.032;-8.634;2024-02-16T00:04:53;75517.50;;;-148.63;35.51
61528;BME280;47395;42.032;-8.634;2024-02-16T00:06:54;75519.50;;;-148.63;35.44
61528;BME280;47395;42.032;-8.634;2024-02-16T00:08:56;75527.50;;;-148.63;35.35
61528;BME280;47395;42.032;-8.634;2024-02-16T00:10:57;75521.50;;;-148.63;35.34
61528;BME280;47395;42.032;-8.634;2024-02-16T00:12:58;75511.50;;;-148.63;35.21
61528;BME280;47395;42.032;-8.634;2024-02-16T00:15:00;75527.50;;;-148.63;35.08
61528;BME280;47395;42.032;-8.634;2024-02-16T00:17:01;75517.50;;;-148.63;34.88
61528;BME280;47395;42.032;-8.634;2024-02-16T00:19:02;75549.50;;;-148.63;35.15
61528;BME280;47395;42.032;-8.634;2024-02-16T00:21:03;75505.50;;;-148.63;34.63
61528;BME280;47395;42.032;-8.634;2024-02-16T00:23:06;75523.50;;;-148.63;34.76
61528;BME280;47395;42.032;-8.634;2024-02-16T00:25:07;75577.50;;;-148.63;35.07
61528;BME280;47395;42.032;-8.634;2024-02-16T00:27:09;75601.53;;;-148.63;35.34
61528;BME280;47395;42.032;-8.634;2024-02-16T00:29:10;75677.56;;;-148.63;35.96
61528;BME280;47395;42.032;-8.634;2024-02-16T00:31:11;75585.53;;;-148.63;35.22
61528;BME280;47395;42.032;-8.634;2024-02-16T00:33:11;75603.53;;;-148.63;35.42
61528;BME280;47395;42.032;-8.634;2024-02-16T00:35:14;75609.53;;;-148.63;35.63
61528;BME280;47395;42.032;-8.634;2024-02-16T00:37:17;75599.53;;;-148.63;35.50
61528;BME280;47395;42.032;-8.634;2024-02-16T00:39:18;75597.53;;;-148.63;35.56
61528;BME280;47395;42.032;-8.634;2024-02-16T00:41:20;75611.53;;;-148.63;35.52
61528;BME280;47395;42.032;-8.634;2024-02-16T00:43:21;75565.50;;;-148.63;35.24
61528;BME280;47395;42.032;-8.634;2024-02-16T00:45:22;75657.53;;;-148.63;35.96
61528;BME280;47395;42.032;-8.634;2024-02-16T00:47:23;75597.53;;;-148.63;35.63
61528;BME280;47395;42.032;-8.634;2024-02-16T00:49:24;75595.53;;;-148.63;35.51
61528;BME280;47395;42.032;-8.634;2024-02-16T00:51:26;75609.53;;;-148.63;35.89
61528;BME280;47395;42.032;-8.634;2024-02-16T00:53:27;75645.53;;;-148.63;35.95
61528;BME280;47395;42.032;-8.634;2024-02-16T00:55:28;75623.53;;;-148.63;35.86
61528;BME280;47395;42.032;-8.634;2024-02-16T00:57:29;75615.53;;;-148.63;35.66
61528;BME280;47395;42.032;-8.634;2024-02-16T00:59:30;75669.53;;;-148.63;36.04
61528;BME280;47395;42.032;-8.634;2024-02-16T01:01:31;75693.56;;;-148.63;36.39
61528;BME280;47395;42.032;-8.634;2024-02-16T01:03:32;75657.53;;;-148.63;35.82
61528;BME280;47395;42.032;-8.634;2024-02-16T01:05:33;75705.56;;;-148.63;36.68
61528;BME280;47395;42.032;-8.634;2024-02-16T01:07:34;75701.56;;;-148.63;36.50
61528;BME280;47395;42.032;-8.634;2024-02-16T01:09:35;75745.56;;;-148.63;36.94
61528;BME280;47395;42.032;-8.634;2024-02-16T01:11:36;75685.56;;;-148.63;36.49
61528;BME280;47395;42.032;-8.634;2024-02-16T01:13:38;75707.56;;;-148.63;36.58
61528;BME280;47395;42.032;-8.634;2024-02-16T01:15:40;75709.56;;;-148.63;36.56
61528;BME280;47395;42.032;-8.634;2024-02-16T01:17:42;75639.53;;;-148.63;35.86
61528;BME280;47395;42.032;-8.634;2024-02-16T01:19:43;75669.53;;;-148.63;35.85
61528;BME280;47395;42.032;-8.634;2024-02-16T01:21:44;75707.56;;;-148.63;36.30
61528;BME280;47395;42.032;-8.634;2024-02-16T01:23:49;75731.56;;;-148.63;36.55
61528;BME280;47395;42.032;-8.634;2024-02-16T01:25:50;75791.59;;;-148.63;36.89
61528;BME280;47395;42.032;-8.634;2024-02-16T01:27:53;75731.56;;;-148.63;36.58
61528;BME280;47395;42.032;-8.634;2024-02-16T01:29:57;75823.59;;;-148.63;37.44
61528;BME280;47395;42.032;-8.634;2024-02-16T01:31:58;75997.66;;;-148.63;39.24
61528;BME280;47395;42.032;-8.634;2024-02-16T01:33:59;76059.69;;;-148.63;40.04
61528;BME280;47395;42.032;-8.634;2024-02-16T01:36:02;75929.63;;;-148.63;38.72
61528;BME280;47395;42.032;-8.634;2024-02-16T01:38:03;76023.69;;;-148.63;39.46
61528;BME280;47395;42.032;-8.634;2024-02-16T01:40:05;76039.69;;;-148.63;39.95
61528;BME280;47395;42.032;-8.634;2024-02-16T01:42:07;76041.69;;;-148.63;39.82
61528;BME280;47395;42.032;-8.634;2024-02-16T01:44:08;75983.66;;;-148.63;39.27
61528;BME280;47395;42.032;-8.634;2024-02-16T01:46:09;75963.66;;;-148.63;38.77
61528;BME280;47395;42.032;-8.634;2024-02-16T01:48:10;76001.66;;;-148.63;39.32
61528;BME280;47395;42.032;-8.634;2024-02-16T01:50:11;75929.63;;;-148.63;38.34
61528;BME280;47395;42.032;-8.634;2024-02-16T01:52:12;75931.66;;;-148.63;38.39
61528;BME280;47395;42.032;-8.634;2024-02-16T01:54:14;76009.66;;;-148.63;38.99
61528;BME280;47395;42.032;-8.634;2024-02-16T01:56:18;75861.63;;;-148.63;37.68
61528;BME280;47395;42.032;-8.634;2024-02-16T01:58:21;75719.56;;;-148.63;36.22
61528;BME280;47395;42.032;-8.634;2024-02-16T02:00:23;75825.59;;;-148.63;36.99
61528;BME280;47395;42.032;-8.634;2024-02-16T02:02:24;75809.59;;;-148.63;37.18
61528;BME280;47395;42.032;-8.634;2024-02-16T02:04:26;75719.56;;;-148.63;36.31
61528;BME280;47395;42.032;-8.634;2024-02-16T02:06:27;75809.59;;;-148.63;36.80
61528;BME280;47395;42.032;-8.634;2024-02-16T02:08:28;75983.66;;;-148.63;38.65
61528;BME280;47395;42.032;-8.634;2024-02-16T02:10:29;76123.72;;;-148.63;40.51
61528;BME280;47395;42.032;-8.634;2024-02-16T02:12:30;76169.75;;;-148.63;41.35
61528;BME280;47395;42.032;-8.634;2024-02-16T02:14:33;76161.75;;;-148.63;41.34
61528;BME280;47395;42.032;-8.634;2024-02-16T02:16:34;76163.75;;;-148.63;41.56
61528;BME280;47395;42.032;-8.634;2024-02-16T02:18:34;76145.72;;;-148.63;41.21
61528;BME280;47395;42.032;-8.634;2024-02-16T02:20:35;76097.72;;;-148.63;41.04
61528;BME280;47395;42.032;-8.634;2024-02-16T02:22:39;76077.69;;;-148.63;40.60
61528;BME280;47395;42.032;-8.634;2024-02-16T02:24:40;76019.69;;;-148.63;40.34
61528;BME280;47395;42.032;-8.634;2024-02-16T02:26:42;75893.63;;;-148.63;38.70
61528;BME280;47395;42.032;-8.634;2024-02-16T02:28:43;75875.63;;;-148.63;38.25
61528;BME280;47395;42.032;-8.634;2024-02-16T02:30:44;75907.63;;;-148.63;38.90
61528;BME280;47395;42.032;-8.634;2024-02-16T02:32:49;75889.63;;;-148.63;38.45
61528;BME280;47395;42.032;-8.634;2024-02-16T02:34:50;75777.59;;;-148.63;37.21
61528;BME280;47395;42.032;-8.634;2024-02-16T02:36:50;75847.59;;;-148.63;38.04
61528;BME280;47395;42.032;-8.634;2024-02-16T02:38:51;75889.63;;;-148.63;38.61
61528;BME280;47395;42.032;-8.634;2024-02-16T02:40:52;75917.63;;;-148.63;38.80
61528;BME280;47395;42.032;-8.634;2024-02-16T02:42:53;75911.63;;;-148.63;38.77
61528;BME280;47395;42.032;-8.634;2024-02-16T02:44:54;75893.63;;;-148.63;38.58
61528;BME280;47395;42.032;-8.634;2024-02-16T02:46:55;75877.63;;;-148.63;38.21
61528;BME280;47395;42.032;-8.634;2024-02-16T02:48:57;75865.63;;;-148.63;38.12
61528;BME280;47395;42.032;-8.634;2024-02-16T02:50:58;75929.63;;;-148.63;38.58
61528;BME280;47395;42.032;-8.634;2024-02-16T02:53:01;75897.63;;;-148.63;38.30
61528;BME280;47395;42.032;-8.634;2024-02-16T02:55:02;75873.63;;;-148.63;37.65
61528;BME280;47395;42.032;-8.634;2024-02-16T02:57:04;75829.59;;;-148.63;37.26
61528;BME280;47395;42.032;-8.634;2024-02-16T02:59:05;75833.59;;;-148.63;37.05
61528;BME280;47395;42.032;-8.634;2024-02-16T03:01:07;75883.63;;;-148.63;37.53
61528;BME280;47395;42.032;-8.634;2024-02-16T03:03:10;75815.59;;;-148.63;37.10
61528;BME280;47395;42.032;-8.634;2024-02-16T03:05:11;75867.63;;;-148.63;37.64
61528;BME280;47395;42.032;-8.634;2024-02-16T03:07:13;75783.59;;;-148.63;36.75
61528;BME280;47395;42.032;-8.634;2024-02-16T03:09:15;75911.63;;;-148.63;37.64
61528;BME280;47395;42.032;-8.634;2024-02-16T03:11:17;75973.66;;;-148.63;38.50
61528;BME280;47395;42.032;-8.634;2024-02-16T03:13:19;75917.63;;;-148.63;37.96
61528;BME280;47395;42.032;-8.634;2024-02-16T03:15:21;75809.59;;;-148.63;37.10
61528;BME280;47395;42.032;-8.634;2024-02-16T03:17:22;75783.59;;;-148.63;36.72
61528;BME280;47395;42.032;-8.634;2024-02-16T03:19:24;75781.59;;;-148.63;36.70
61528;BME280;47395;42.032;-8.634;2024-02-16T03:21:27;75775.59;;;-148.63;36.60
61528;BME280;47395;42.032;-8.634;2024-02-16T03:23:30;75769.59;;;-148.63;37.16
61528;BME280;47395;42.032;-8.634;2024-02-16T03:25:31;75733.56;;;-148.63;36.39
61528;BME280;47395;42.032;-8.634;2024-02-16T03:27:34;75725.56;;;-148.63;36.57
61528;BME280;47395;42.032;-8.634;2024-02-16T03:29:36;75735.56;;;-148.63;36.33
61528;BME280;47395;42.032;-8.634;2024-02-16T03:31:38;75717.56;;;-148.63;36.36
61528;BME280;47395;42.032;-8.634;2024-02-16T03:33:39;75693.56;;;-148.63;36.13
61528;BME280;47395;42.032;-8.634;2024-02-16T03:35:41;75679.56;;;-148.63;36.23
61528;BME280;47395;42.032;-8.634;2024-02-16T03:37:42;75717.56;;;-148.63;36.34
61528;BME280;47395;42.032;-8.634;2024-02-16T03:39:43;75679.56;;;-148.63;36.04
61528;BME280;47395;42.032;-8.634;2024-02-16T03:41:44;75741.56;;;-148.63;36.52
61528;BME280;47395;42.032;-8.634;2024-02-16T03:43:50;75665.53;;;-148.63;36.19
61528;BME280;47395;42.032;-8.634;2024-02-16T03:45:51;75611.53;;;-148.63;35.48
61528;BME280;47395;42.032;-8.634;2024-02-16T03:47:54;75597.53;;;-148.63;35.38
61528;BME280;47395;42.032;-8.634;2024-02-16T03:49:55;75589.53;;;-148.63;35.08
61528;BME280;47395;42.032;-8.634;2024-02-16T03:51:56;75563.50;;;-148.63;34.76
61528;BME280;47395;42.032;-8.634;2024-02-16T03:53:58;75541.50;;;-148.63;34.61
61528;BME280;47395;42.032;-8.634;2024-02-16T03:55:59;75587.53;;;-148.63;34.61
61528;BME280;47395;42.032;-8.634;2024-02-16T03:58:01;75613.53;;;-148.63;34.66
61528;BME280;47395;42.032;-8.634;2024-02-16T04:00:03;75709.56;;;-148.63;35.57
61528;BME280;47395;42.032;-8.634;2024-02-16T04:02:13;75693.56;;;-148.63;35.54
61528;BME280;47395;42.032;-8.634;2024-02-16T04:04:15;75645.53;;;-148.63;35.07
61528;BME280;47395;42.032;-8.634;2024-02-16T04:06:16;75643.53;;;-148.63;35.18
61528;BME280;47395;42.032;-8.634;2024-02-16T04:08:17;75615.53;;;-148.63;34.92
61528;BME280;47395;42.032;-8.634;2024-02-16T04:10:19;75601.53;;;-148.63;34.62
61528;BME280;47395;42.032;-8.634;2024-02-16T04:12:20;75577.50;;;-148.63;34.55
61528;BME280;47395;42.032;-8.634;2024-02-16T04:14:21;75625.53;;;-148.63;34.66
61528;BME280;47395;42.032;-8.634;2024-02-16T04:16:22;75715.56;;;-148.63;35.36
61528;BME280;47395;42.032;-8.634;2024-02-16T04:18:25;75759.56;;;-148.63;35.59
61528;BME280;47395;42.032;-8.634;2024-02-16T04:20:26;75829.59;;;-148.63;36.44
61528;BME280;47395;42.032;-8.634;2024-02-16T04:22:27;75839.59;;;-148.63;36.50
61528;BME280;47395;42.032;-8.634;2024-02-16T04:24:28;75699.56;;;-148.63;35.24
61528;BME280;47395;42.032;-8.634;2024-02-16T04:26:29;75635.53;;;-148.63;34.56
61528;BME280;47395;42.032;-8.634;2024-02-16T04:28:30;75619.53;;;-148.63;34.52
61528;BME280;47395;42.032;-8.634;2024-02-16T04:30:31;75613.53;;;-148.63;34.36
61528;BME280;47395;42.032;-8.634;2024-02-16T04:32:32;75637.53;;;-148.63;34.70
61528;BME280;47395;42.032;-8.634;2024-02-16T04:34:36;75613.53;;;-148.63;34.53
61528;BME280;47395;42.032;-8.634;2024-02-16T04:36:37;75631.53;;;-148.63;34.51
61528;BME280;47395;42.032;-8.634;2024-02-16T04:38:38;75645.53;;;-148.63;34.69
61528;BME280;47395;42.032;-8.634;2024-02-16T04:40:39;75617.53;;;-148.63;34.29
61528;BME280;47395;42.032;-8.634;2024-02-16T04:42:40;75649.53;;;-148.63;34.47
61528;BME280;47395;42.032;-8.634;2024-02-16T04:44:41;75677.56;;;-148.63;34.67
61528;BME280;47395;42.032;-8.634;2024-02-16T04:46:42;75743.56;;;-148.63;35.04
61528;BME280;47395;42.032;-8.634;2024-02-16T04:48:43;75767.59;;;-148.63;35.43
61528;BME280;47395;42.032;-8.634;2024-02-16T04:50:44;75853.63;;;-148.63;36.19
61528;BME280;47395;42.032;-8.634;2024-02-16T04:52:47;75791.59;;;-148.63;35.93
61528;BME280;47395;42.032;-8.634;2024-02-16T04:54:48;75717.56;;;-148.63;35.05
61528;BME280;47395;42.032;-8.634;2024-02-16T04:56:50;75731.56;;;-148.63;35.06
61528;BME280;47395;42.032;-8.634;2024-02-16T04:58:51;75761.56;;;-148.63;35.40
61528;BME280;47395;42.032;-8.634;2024-02-16T05:00:52;75893.63;;;-148.63;36.59
61528;BME280;47395;42.032;-8.634;2024-02-16T05:05:37;75901.63;;;-148.63;36.94
61528;BME280;47395;42.032;-8.634;2024-02-16T05:07:38;75867.63;;;-148.63;36.51
61528;BME280;47395;42.032;-8.634;2024-02-16T05:09:39;75785.59;;;-148.63;35.72
61528;BME280;47395;42.032;-8.634;2024-02-16T05:11:40;75745.56;;;-148.63;35.45
61528;BME280;47395;42.032;-8.634;2024-02-16T05:13:41;75727.56;;;-148.63;35.24
61528;BME280;47395;42.032;-8.634;2024-02-16T05:15:43;75741.56;;;-148.63;35.31
61528;BME280;47395;42.032;-8.634;2024-02-16T05:17:47;75737.56;;;-148.63;35.18
61528;BME280;47395;42.032;-8.634;2024-02-16T05:19:51;75751.56;;;-148.63;35.31
61528;BME280;47395;42.032;-8.634;2024-02-16T05:21:54;75779.59;;;-148.63;35.68
61528;BME280;47395;42.032;-8.634;2024-02-16T05:23:56;75749.56;;;-148.63;35.54
61528;BME280;47395;42.032;-8.634;2024-02-16T05:25:57;75715.56;;;-148.63;35.05
61528;BME280;47395;42.032;-8.634;2024-02-16T05:27:58;75707.56;;;-148.63;34.79
61528;BME280;47395;42.032;-8.634;2024-02-16T05:29:59;75705.56;;;-148.63;34.76
61528;BME280;47395;42.032;-8.634;2024-02-16T05:32:00;75701.56;;;-148.63;34.53
61528;BME280;47395;42.032;-8.634;2024-02-16T05:34:01;75689.56;;;-148.63;34.46
61528;BME280;47395;42.032;-8.634;2024-02-16T05:36:02;75695.56;;;-148.63;34.11
61528;BME280;47395;42.032;-8.634;2024-02-16T05:38:04;75711.56;;;-148.63;34.32
61528;BME280;47395;42.032;-8.634;2024-02-16T05:40:11;75725.56;;;-148.63;34.50
61528;BME280;47395;42.032;-8.634;2024-02-16T05:42:29;75713.56;;;-148.63;34.22
61528;BME280;47395;42.032;-8.634;2024-02-16T05:44:30;75743.56;;;-148.63;34.51
61528;BME280;47395;42.032;-8.634;2024-02-16T05:46:33;75801.59;;;-148.63;34.73
61528;BME280;47395;42.032;-8.634;2024-02-16T05:48:34;75753.56;;;-148.63;34.67
61528;BME280;47395;42.032;-8.634;2024-02-16T05:50:38;75781.59;;;-148.63;34.76
61528;BME280;47395;42.032;-8.634;2024-02-16T05:52:39;75793.59;;;-148.63;34.98
61528;BME280;47395;42.032;-8.634;2024-02-16T05:54:41;75759.56;;;-148.63;34.74
61528;BME280;47395;42.032;-8.634;2024-02-16T05:56:42;75755.56;;;-148.63;34.47
61528;BME280;47395;42.032;-8.634;2024-02-16T05:58:43;75755.56;;;-148.63;34.41
61528;BME280;47395;42.032;-8.634;2024-02-16T06:00:44;75761.56;;;-148.63;34.76
61528;BME280;47395;42.032;-8.634;2024-02-16T06:02:47;75755.56;;;-148.63;34.64
61528;BME280;47395;42.032;-8.634;2024-02-16T06:04:48;75745.56;;;-148.63;34.29
61528;BME280;47395;42.032;-8.634;2024-02-16T06:06:50;75741.56;;;-148.63;34.44
61528;BME280;47395;42.032;-8.634;2024-02-16T06:08:51;75745.56;;;-148.63;34.52
61528;BME280;47395;42.032;-8.634;2024-02-16T06:10:52;75753.56;;;-148.63;34.63
61528;BME280;47395;42.032;-8.634;2024-02-16T06:12:54;75733.56;;;-148.63;34.36
61528;BME280;47395;42.032;-8.634;2024-02-16T06:14:56;75745.56;;;-148.63;34.40
61528;BME280;47395;42.032;-8.634;2024-02-16T06:16:58;75801.59;;;-148.63;34.77
61528;BME280;47395;42.032;-8.634;2024-02-16T06:18:59;75933.66;;;-148.63;35.91
61528;BME280;47395;42.032;-8.634;2024-02-16T06:21:00;75817.59;;;-148.63;34.98
61528;BME280;47395;42.032;-8.634;2024-02-16T06:23:01;75803.59;;;-148.63;34.71
61528;BME280;47395;42.032;-8.634;2024-02-16T06:25:03;75779.59;;;-148.63;34.61
61528;BME280;47395;42.032;-8.634;2024-02-16T06:27:04;75785.59;;;-148.63;34.52
61528;BME280;47395;42.032;-8.634;2024-02-16T06:29:05;75785.59;;;-148.63;34.47
61528;BME280;47395;42.032;-8.634;2024-02-16T06:31:06;75789.59;;;-148.63;34.58
61528;BME280;47395;42.032;-8.634;2024-02-16T06:33:07;75789.59;;;-148.63;34.50
61528;BME280;47395;42.032;-8.634;2024-02-16T06:35:08;75823.59;;;-148.63;34.81
61528;BME280;47395;42.032;-8.634;2024-02-16T06:37:09;75797.59;;;-148.63;34.67
61528;BME280;47395;42.032;-8.634;2024-02-16T06:39:11;75787.59;;;-148.63;34.52
61528;BME280;47395;42.032;-8.634;2024-02-16T06:41:15;75779.59;;;-148.63;34.62
61528;BME280;47395;42.032;-8.634;2024-02-16T06:43:16;75785.59;;;-148.63;34.54
61528;BME280;47395;42.032;-8.634;2024-02-16T06:45:17;75781.59;;;-148.63;34.68
61528;BME280;47395;42.032;-8.634;2024-02-16T06:47:18;75797.59;;;-148.63;34.42
61528;BME280;47395;42.032;-8.634;2024-02-16T06:49:23;75859.63;;;-148.63;34.85
61528;BME280;47395;42.032;-8.634;2024-02-16T06:51:25;75869.63;;;-148.63;34.77
61528;BME280;47395;42.032;-8.634;2024-02-16T06:53:27;75903.63;;;-148.63;34.99
61528;BME280;47395;42.032;-8.634;2024-02-16T06:55:28;75881.63;;;-148.63;34.96
61528;BME280;47395;42.032;-8.634;2024-02-16T06:57:29;75851.59;;;-148.63;34.73
61528;BME280;47395;42.032;-8.634;2024-02-16T06:59:31;75833.59;;;-148.63;34.58
61528;BME280;47395;42.032;-8.634;2024-02-16T07:01:32;75837.59;;;-148.63;34.53
61528;BME280;47395;42.032;-8.634;2024-02-16T07:03:33;75841.59;;;-148.63;34.55
61528;BME280;47395;42.032;-8.634;2024-02-16T07:05:37;75831.59;;;-148.63;34.50
61528;BME280;47395;42.032;-8.634;2024-02-16T07:07:38;75833.59;;;-148.63;34.38
61528;BME280;47395;42.032;-8.634;2024-02-16T07:09:39;75857.63;;;-148.63;34.50
61528;BME280;47395;42.032;-8.634;2024-02-16T07:11:40;75841.59;;;-148.63;34.46
61528;BME280;47395;42.032;-8.634;2024-02-16T07:13:41;75849.59;;;-148.63;34.49
61528;BME280;47395;42.032;-8.634;2024-02-16T07:15:45;75851.59;;;-148.63;34.50
61528;BME280;47395;42.032;-8.634;2024-02-16T07:17:46;75843.59;;;-148.63;34.23
61528;BME280;47395;42.032;-8.634;2024-02-16T07:19:47;75839.59;;;-148.63;34.08
61528;BME280;47395;42.032;-8.634;2024-02-16T07:21:48;75851.59;;;-148.63;34.56
61528;BME280;47395;42.032;-8.634;2024-02-16T07:23:50;75847.59;;;-148.63;34.44
61528;BME280;47395;42.032;-8.634;2024-02-16T07:25:51;75875.63;;;-148.63;34.65
61528;BME280;47395;42.032;-8.634;2024-02-16T07:27:55;75871.63;;;-148.63;34.79
61528;BME280;47395;42.032;-8.634;2024-02-16T07:29:56;75875.63;;;-148.63;34.72
61528;BME280;47395;42.032;-8.634;2024-02-16T07:31:57;75837.59;;;-148.63;34.47
61528;BME280;47395;42.032;-8.634;2024-02-16T07:33:58;75845.59;;;-148.63;34.57
61528;BME280;47395;42.032;-8.634;2024-02-16T07:35:59;75825.59;;;-148.63;34.41
61528;BME280;47395;42.032;-8.634;2024-02-16T07:38:00;75801.59;;;-148.63;34.08
61528;BME280;47395;42.032;-8.634;2024-02-16T07:40:01;75801.59;;;-148.63;34.15
61528;BME280;47395;42.032;-8.634;2024-02-16T07:42:03;75807.59;;;-148.63;34.38
61528;BME280;47395;42.032;-8.634;2024-02-16T07:44:04;75797.59;;;-148.63;34.07
61528;BME280;47395;42.032;-8.634;2024-02-16T07:46:05;75781.59;;;-148.63;33.92
61528;BME280;47395;42.032;-8.634;2024-02-16T07:48:06;75837.59;;;-148.63;34.36
61528;BME280;47395;42.032;-8.634;2024-02-16T07:50:08;75823.59;;;-148.63;34.18
61528;BME280;47395;42.032;-8.634;2024-02-16T07:52:09;75815.59;;;-148.63;34.14
61528;BME280;47395;42.032;-8.634;2024-02-16T07:54:10;75801.59;;;-148.63;34.23
61528;BME280;47395;42.032;-8.634;2024-02-16T07:56:12;75783.59;;;-148.63;33.99
61528;BME280;47395;42.032;-8.634;2024-02-16T07:58:13;75787.59;;;-148.63;33.96
61528;BME280;47395;42.032;-8.634;2024-02-16T08:00:14;75821.59;;;-148.63;34.34
61528;BME280;47395;42.032;-8.634;2024-02-16T08:02:16;75791.59;;;-148.63;33.86
61528;BME280;47395;42.032;-8.634;2024-02-16T08:04:18;75801.59;;;-148.63;33.78
61528;BME280;47395;42.032;-8.634;2024-02-16T08:06:19;75785.59;;;-148.63;33.86
61528;BME280;47395;42.032;-8.634;2024-02-16T08:08:25;75785.59;;;-148.63;33.97
61528;BME280;47395;42.032;-8.634;2024-02-16T08:10:26;75823.59;;;-148.63;34.02
61528;BME280;47395;42.032;-8.634;2024-02-16T08:12:27;75845.59;;;-148.63;34.33
61528;BME280;47395;42.032;-8.634;2024-02-16T08:14:28;75817.59;;;-148.63;33.95
61528;BME280;47395;42.032;-8.634;2024-02-16T08:16:29;75773.59;;;-148.63;33.78
61528;BME280;47395;42.032;-8.634;2024-02-16T08:18:30;75775.59;;;-148.63;33.59
61528;BME280;47395;42.032;-8.634;2024-02-16T08:20:31;75795.59;;;-148.63;33.96
61528;BME280;47395;42.032;-8.634;2024-02-16T08:22:32;75751.56;;;-148.63;33.73
61528;BME280;47395;42.032;-8.634;2024-02-16T08:24:36;75719.56;;;-148.63;33.15
61528;BME280;47395;42.032;-8.634;2024-02-16T08:26:37;75749.56;;;-148.63;33.31
61528;BME280;47395;42.032;-8.634;2024-02-16T08:28:38;75713.56;;;-148.63;33.14
61528;BME280;47395;42.032;-8.634;2024-02-16T08:30:39;75705.56;;;-148.63;33.07
61528;BME280;47395;42.032;-8.634;2024-02-16T08:32:42;75689.56;;;-148.63;32.99
61528;BME280;47395;42.032;-8.634;2024-02-16T08:34:43;75717.56;;;-148.63;32.95
61528;BME280;47395;42.032;-8.634;2024-02-16T08:36:47;75709.56;;;-148.63;33.05
61528;BME280;47395;42.032;-8.634;2024-02-16T08:38:48;75705.56;;;-148.63;33.20
61528;BME280;47395;42.032;-8.634;2024-02-16T08:40:49;75797.59;;;-148.63;33.78
61528;BME280;47395;42.032;-8.634;2024-02-16T08:42:52;75741.56;;;-148.63;33.25
61528;BME280;47395;42.032;-8.634;2024-02-16T08:44:53;75737.56;;;-148.63;33.20
61528;BME280;47395;42.032;-8.634;2024-02-16T08:46:54;75761.56;;;-148.63;33.66
61528;BME280;47395;42.032;-8.634;2024-02-16T08:48:56;75735.56;;;-148.63;33.37
61528;BME280;47395;42.032;-8.634;2024-02-16T08:50:57;75665.53;;;-148.63;32.60
61528;BME280;47395;42.032;-8.634;2024-02-16T08:52:58;75673.53;;;-148.63;32.97
61528;BME280;47395;42.032;-8.634;2024-02-16T08:54:58;75629.53;;;-148.63;32.66
61528;BME280;47395;42.032;-8.634;2024-02-16T08:56:59;75585.53;;;-148.63;32.48
61528;BME280;47395;42.032;-8.634;2024-02-16T08:59:04;75567.50;;;-148.63;32.33
61528;BME280;47395;42.032;-8.634;2024-02-16T09:01:05;75539.50;;;-148.63;32.12
61528;BME280;47395;42.032;-8.634;2024-02-16T09:03:06;75579.53;;;-148.63;32.27
61528;BME280;47395;42.032;-8.634;2024-02-16T09:05:10;75523.50;;;-148.63;31.85
61528;BME280;47395;42.032;-8.634;2024-02-16T09:07:12;75487.50;;;-148.63;31.75
61528;BME280;47395;42.032;-8.634;2024-02-16T09:09:14;75475.50;;;-148.63;31.45
61528;BME280;47395;42.032;-8.634;2024-02-16T09:11:15;75481.50;;;-148.63;31.92
61528;BME280;47395;42.032;-8.634;2024-02-16T09:13:17;75485.50;;;-148.63;31.64
61528;BME280;47395;42.032;-8.634;2024-02-16T09:15:19;75411.47;;;-148.63;30.97
61528;BME280;47395;42.032;-8.634;2024-02-16T09:17:20;75277.44;;;-148.63;30.18
61528;BME280;47395;42.032;-8.634;2024-02-16T09:19:21;75425.47;;;-148.63;30.94
61528;BME280;47395;42.032;-8.634;2024-02-16T09:21:22;75343.44;;;-148.63;30.70
61528;BME280;47395;42.032;-8.634;2024-02-16T09:23:26;75271.44;;;-148.63;29.95
61528;BME280;47395;42.032;-8.634;2024-02-16T09:25:28;75213.41;;;-148.63;29.41
61528;BME280;47395;42.032;-8.634;2024-02-16T09:27:29;74875.38;;;-148.63;27.95
61528;BME280;47395;42.032;-8.634;2024-02-16T09:29:30;74677.34;;;-148.63;26.63
61528;BME280;47395;42.032;-8.634;2024-02-16T09:31:32;74645.34;;;-148.63;25.95
61528;BME280;47395;42.032;-8.634;2024-02-16T09:33:32;74729.34;;;-148.63;26.60
61528;BME280;47395;42.032;-8.634;2024-02-16T09:35:33;74703.34;;;-148.63;26.48
61528;BME280;47395;42.032;-8.634;2024-02-16T09:37:35;74843.34;;;-148.63;27.25
61528;BME280;47395;42.032;-8.634;2024-02-16T09:39:37;74817.34;;;-148.63;27.15
61528;BME280;47395;42.032;-8.634;2024-02-16T09:41:42;74765.34;;;-148.63;26.55
61528;BME280;47395;42.032;-8.634;2024-02-16T09:43:43;74707.34;;;-148.63;26.31
61528;BME280;47395;42.032;-8.634;2024-02-16T09:45:45;74723.34;;;-148.63;26.13
61528;BME280;47395;42.032;-8.634;2024-02-16T09:47:46;74771.34;;;-148.63;26.32
61528;BME280;47395;42.032;-8.634;2024-02-16T09:49:50;74853.34;;;-148.63;26.79
61528;BME280;47395;42.032;-8.634;2024-02-16T09:51:53;74855.34;;;-148.63;26.60
61528;BME280;47395;42.032;-8.634;2024-02-16T09:53:57;74765.34;;;-148.63;26.15
61528;BME280;47395;42.032;-8.634;2024-02-16T09:55:59;74725.34;;;-148.63;25.77
61528;BME280;47395;42.032;-8.634;2024-02-16T09:58:02;74641.34;;;-148.63;25.62
61528;BME280;47395;42.032;-8.634;2024-02-16T10:00:06;74515.34;;;-148.63;24.45
61528;BME280;47395;42.032;-8.634;2024-02-16T10:02:13;74339.31;;;-148.63;24.07
61528;BME280;47395;42.032;-8.634;2024-02-16T10:04:14;74339.31;;;-148.63;23.90
61528;BME280;47395;42.032;-8.634;2024-02-16T10:06:16;74207.34;;;-148.63;23.13
61528;BME280;47395;42.032;-8.634;2024-02-16T10:08:18;74101.34;;;-148.63;22.73
61528;BME280;47395;42.032;-8.634;2024-02-16T10:10:24;73897.34;;;-148.63;21.23
61528;BME280;47395;42.032;-8.634;2024-02-16T10:12:25;73919.34;;;-148.63;21.32
61528;BME280;47395;42.032;-8.634;2024-02-16T10:14:27;73879.34;;;-148.63;21.28
61528;BME280;47395;42.032;-8.634;2024-02-16T10:16:29;73809.38;;;-148.63;21.12
61528;BME280;47395;42.032;-8.634;2024-02-16T10:18:30;73807.38;;;-148.63;20.70
61528;BME280;47395;42.032;-8.634;2024-02-16T10:20:35;73681.38;;;-148.63;20.51
61528;BME280;47395;42.032;-8.634;2024-02-16T10:22:40;73643.38;;;-148.63;20.18